This is the latest recevied weather packets stored in our database for station/object T77NM. If no packets are shown the sender has not sent any weather packets the latest 10 day(s).
| Time | Temp. | Humidity | Pressure | Rain* | Wind** | Luminosity | Snow |
|---|---|---|---|---|---|---|---|
| 1778094003 | 16.11° C | 74% | 1010.6 hPa | 0 mm | - | 0 W/m² | - |
| 1778088602 | 17.22° C | 70% | 1009.8 hPa | 0 mm | - | 25 W/m² | - |
| 1778083271 | 19.44° C | 62% | 1009.7 hPa | 0 mm | - | 345 W/m² | - |
| 1778082358 | 19.44° C | 62% | 1009.8 hPa | 0 mm | - | 603 W/m² | - |
| 1778081461 | 20° C | 60% | 1009.7 hPa | 0 mm | - | 494 W/m² | - |
| 1778067041 | 18.33° C | 66% | 1010.7 hPa | 0 mm | - | 612 W/m² | - |
| 1778063433 | 16.67° C | 72% | 1011 hPa | 0 mm | - | 445 W/m² | - |
| 1778061632 | 16.67° C | 72% | 1011 hPa | 0 mm | - | 415 W/m² | - |
| 1778060733 | 16.67° C | 73% | 1010.9 hPa | 0 mm | - | 554 W/m² | - |
| 1778054416 | 15° C | 77% | 1010.3 hPa | 0 mm | - | 461 W/m² | - |
| 1778053514 | 15° C | 78% | 1010.3 hPa | 0 mm | - | 406 W/m² | - |
| 1778052612 | 14.44° C | 79% | 1010.2 hPa | 0 mm | - | 385 W/m² | - |
| 1778050807 | 14.44° C | 80% | 1010.5 hPa | 0 mm | - | 290 W/m² | - |
| 1778047260 | 13.33° C | 81% | 1011.2 hPa | 0 mm | - | 128 W/m² | - |
| 1778040952 | 13.33° C | 84% | 1011.1 hPa | 0 mm | - | 0 W/m² | - |
| 1778040047 | 13.89° C | 82% | 1011.3 hPa | 0 mm | - | 0 W/m² | - |
| 1778039146 | 13.89° C | 81% | 1011.3 hPa | 0 mm | - | 0 W/m² | - |
| 1778037356 | 13.89° C | 86% | 1011 hPa | 0 mm | - | 0 W/m² | - |
| 1778036458 | 13.89° C | 86% | 1010.9 hPa | 0 mm | - | 0 W/m² | - |
| 1778028364 | 13.89° C | 87% | 1011.7 hPa | 0 mm | - | 0 W/m² | - |
| 1778016615 | 13.33° C | 86% | 1013.4 hPa | 1.52 mm | - | 0 W/m² | - |
| 1778013923 | 13.89° C | 87% | 1013.5 hPa | 3.81 mm | - | 0 W/m² | - |
| 1778012114 | 13.33° C | 87% | 1013.7 hPa | 3.56 mm | - | 0 W/m² | - |
| 1778008511 | 13.89° C | 83% | 1013.2 hPa | 2.54 mm | - | 0 W/m² | - |
| 1778003111 | 14.44° C | 87% | 1012.9 hPa | 4.83 mm | - | 0 W/m² | - |
* Rain latest hour (hover to see other rain measurements)
** Current wind speed in m/s (hover to see current wind gust speed)